createdAt,value
2019-03-26T00:01:58.087Z,78.3
2019-03-26T00:06:58.081Z,77.7
2019-03-26T00:11:58.089Z,78.6
2019-03-26T00:16:58.090Z,77.9
2019-03-26T00:21:58.111Z,78.2
2019-03-26T00:26:58.104Z,78.4
2019-03-26T00:31:58.295Z,78.3
2019-03-26T00:36:58.215Z,78.3
2019-03-26T00:41:58.245Z,78.4
2019-03-26T00:46:58.306Z,78.3
2019-03-26T00:51:58.109Z,77.7
2019-03-26T00:56:58.248Z,78.2
2019-03-26T01:01:58.298Z,78.4
2019-03-26T01:06:58.326Z,78.8
2019-03-26T01:11:58.249Z,77.9
2019-03-26T01:16:58.201Z,78.3
2019-03-26T01:21:58.333Z,78.5
2019-03-26T01:26:58.362Z,79.2
2019-03-26T01:31:58.297Z,78.4
2019-03-26T01:36:58.347Z,79.4
2019-03-26T01:41:58.365Z,78.9
2019-03-26T01:46:58.286Z,78.7
2019-03-26T01:51:58.288Z,78.8
2019-03-26T01:56:58.256Z,78.8
2019-03-26T02:01:58.304Z,78.5
2019-03-26T02:06:58.291Z,78.4
2019-03-26T02:11:58.268Z,79.2
2019-03-26T02:16:58.310Z,78.5
2019-03-26T02:21:58.393Z,78.6
2019-03-26T02:26:58.388Z,78.7
2019-03-26T02:31:58.321Z,78.7
2019-03-26T02:36:58.367Z,78.6
2019-03-26T02:41:58.115Z,78.3
2019-03-26T02:46:58.212Z,78.8
2019-03-26T02:51:58.331Z,79.4
2019-03-26T02:56:58.385Z,79.1
2019-03-26T03:01:58.273Z,79.9
2019-03-26T03:06:58.192Z,79.2
2019-03-26T03:11:58.401Z,80.3
2019-03-26T03:16:58.322Z,79.7
2019-03-26T03:21:58.376Z,80.6
2019-03-26T03:26:58.418Z,80.2
2019-03-26T03:31:58.330Z,80.3
2019-03-26T03:36:58.346Z,80.8
2019-03-26T03:41:58.413Z,80.2
2019-03-26T03:46:58.212Z,80.5
2019-03-26T03:51:58.224Z,80.6
2019-03-26T03:56:58.449Z,80.9
2019-03-26T04:01:58.321Z,80.7
2019-03-26T04:06:58.362Z,79.7
2019-03-26T04:11:58.403Z,81
2019-03-26T04:16:58.251Z,80.4
2019-03-26T04:21:58.229Z,80.2
2019-03-26T04:26:58.237Z,80.5
2019-03-26T04:31:58.225Z,79.9
2019-03-26T04:36:58.483Z,79.9
2019-03-26T04:41:58.386Z,79.7
2019-03-26T04:46:58.378Z,80.4
2019-03-26T04:51:58.235Z,80.4
2019-03-26T04:56:58.237Z,79.8
2019-03-26T05:01:58.527Z,80
2019-03-26T05:06:58.231Z,79.3
2019-03-26T05:11:58.406Z,79.3
2019-03-26T05:16:58.322Z,79.8
2019-03-26T05:21:58.378Z,79.2
2019-03-26T05:26:58.522Z,78.8
2019-03-26T05:31:58.275Z,79.7
2019-03-26T05:36:58.476Z,79.4
2019-03-26T05:41:58.499Z,79.2
2019-03-26T05:47:01.958Z,78.3
2019-03-26T05:51:58.397Z,78.1
2019-03-26T05:56:58.498Z,78.2
2019-03-26T06:01:58.416Z,78.8
2019-03-26T06:07:05.448Z,77.8
2019-03-26T06:11:58.276Z,78.4
2019-03-26T06:16:58.454Z,78.1
2019-03-26T06:21:58.408Z,78
2019-03-26T06:26:58.286Z,78.3
2019-03-26T06:31:58.420Z,77.4
2019-03-26T06:36:58.448Z,77.6
2019-03-26T06:41:58.491Z,76.3
2019-03-26T06:46:58.531Z,76.4
2019-03-26T06:51:58.456Z,75.8
2019-03-26T06:56:58.509Z,74.4
2019-03-26T07:01:58.548Z,75.4
2019-03-26T07:06:58.456Z,74.5
2019-03-26T07:11:58.307Z,71.7
2019-03-26T07:16:58.541Z,72.4
2019-03-26T07:21:58.544Z,72.5
2019-03-26T07:26:58.498Z,70.6
2019-03-26T07:31:58.442Z,70.9
2019-03-26T07:36:58.584Z,70.5
2019-03-26T07:41:58.492Z,69.6
2019-03-26T07:46:58.365Z,68.6
2019-03-26T07:51:58.570Z,68.7
2019-03-26T07:56:58.539Z,66
2019-03-26T08:01:58.484Z,66.2
2019-03-26T08:06:58.569Z,64.3
2019-03-26T08:11:58.491Z,61.8
2019-03-26T08:16:58.457Z,63
2019-03-26T08:21:58.582Z,59
2019-03-26T08:26:58.340Z,60.9
2019-03-26T08:31:58.441Z,59.8
2019-03-26T08:36:58.382Z,58.3
2019-03-26T08:41:58.349Z,58.4
2019-03-26T08:46:58.554Z,58.6
2019-03-26T08:51:58.569Z,56.5
2019-03-26T08:56:58.499Z,57.1
2019-03-26T09:01:58.553Z,58.4
2019-03-26T09:06:58.615Z,51.5
2019-03-26T09:11:58.508Z,48.3
2019-03-26T09:16:58.532Z,48.3
2019-03-26T09:21:58.577Z,48.7
2019-03-26T09:26:58.610Z,49.9
2019-03-26T09:31:58.525Z,49.9
2019-03-26T09:36:58.438Z,50.4
2019-03-26T09:41:58.401Z,50.2
2019-03-26T09:46:58.531Z,48.1
2019-03-26T09:51:58.554Z,49.3
2019-03-26T09:56:58.619Z,52
2019-03-26T10:01:58.558Z,51.5
2019-03-26T10:06:58.579Z,49.8
2019-03-26T10:11:58.681Z,48.7
2019-03-26T10:16:58.404Z,48.7
2019-03-26T10:21:58.639Z,49.4
2019-03-26T10:26:58.618Z,49.5
2019-03-26T10:31:58.659Z,51.5
2019-03-26T10:36:58.553Z,49.5
2019-03-26T10:41:58.630Z,48.4
2019-03-26T10:46:58.402Z,46.2
2019-03-26T10:51:58.572Z,45.8
2019-03-26T10:56:58.618Z,46.2
2019-03-26T11:02:00.339Z,47.9
2019-03-26T11:06:58.697Z,46.4
2019-03-26T11:11:58.561Z,48.5
2019-03-26T11:16:58.660Z,49.3
2019-03-26T11:21:58.703Z,47.6
2019-03-26T11:26:58.585Z,48.3
2019-03-26T11:31:58.646Z,48.7
2019-03-26T11:36:58.676Z,50.2
2019-03-26T11:41:58.611Z,49
2019-03-26T11:46:58.657Z,49.6
2019-03-26T11:51:58.684Z,48.5
2019-03-26T11:56:58.610Z,48.6
2019-03-26T12:01:58.552Z,47.8
2019-03-26T12:06:58.400Z,48.5
2019-03-26T12:11:58.600Z,47.3
2019-03-26T12:16:58.417Z,49.9
2019-03-26T12:21:58.477Z,49.8
2019-03-26T12:26:58.478Z,48.3
2019-03-26T12:31:58.546Z,47.3
2019-03-26T12:36:58.485Z,48.3
2019-03-26T12:41:58.724Z,49.8
2019-03-26T12:46:58.822Z,50.3
2019-03-26T12:51:58.693Z,50.6
2019-03-26T12:56:58.503Z,50
2019-03-26T13:01:58.599Z,50
2019-03-26T13:06:58.502Z,51.7
2019-03-26T13:11:58.742Z,51.7
2019-03-26T13:16:58.506Z,51.7
2019-03-26T13:21:58.692Z,52.2
2019-03-26T13:26:58.736Z,52.8
2019-03-26T13:31:58.757Z,52.1
2019-03-26T13:36:58.696Z,50.2
2019-03-26T13:41:58.729Z,51.3
2019-03-26T13:46:58.504Z,50.5
2019-03-26T13:51:58.676Z,50.2
2019-03-26T13:56:58.657Z,49.6
2019-03-26T14:01:58.641Z,51.4
2019-03-26T14:06:58.695Z,52.1
2019-03-26T14:11:58.522Z,51.4
2019-03-26T14:16:58.664Z,50.7
2019-03-26T14:21:58.691Z,51.3
2019-03-26T14:26:58.727Z,50.3
2019-03-26T14:31:58.547Z,50.8
2019-03-26T14:36:58.657Z,51
2019-03-26T14:41:58.732Z,51.4
2019-03-26T14:46:58.766Z,51.6
2019-03-26T14:51:58.558Z,53
2019-03-26T14:56:58.645Z,52.7
2019-03-26T15:01:58.767Z,52.4
2019-03-26T15:06:58.560Z,51.9
2019-03-26T15:11:58.749Z,51.9
2019-03-26T15:16:58.587Z,51.9
2019-03-26T15:21:58.845Z,51.7
2019-03-26T15:26:58.563Z,51.8
2019-03-26T15:31:58.649Z,53
2019-03-26T15:36:58.561Z,53.7
2019-03-26T15:41:58.710Z,52.9
2019-03-26T15:46:58.612Z,51.9
2019-03-26T15:51:58.555Z,52.2
2019-03-26T15:56:59.879Z,51.1
2019-03-26T16:01:58.755Z,51.9
2019-03-26T16:06:58.807Z,52.3
2019-03-26T16:11:58.594Z,53.6
2019-03-26T16:16:58.637Z,53.8
2019-03-26T16:21:58.590Z,53.8
2019-03-26T16:26:58.632Z,54.5
2019-03-26T16:31:58.606Z,55
2019-03-26T16:37:00.246Z,55.9
2019-03-26T16:41:58.617Z,55.7
2019-03-26T16:46:59.635Z,55.4
2019-03-26T16:51:58.596Z,55.5
2019-03-26T16:56:58.597Z,56.1
2019-03-26T17:01:58.616Z,55.5
2019-03-26T17:06:58.643Z,56.5
2019-03-26T17:12:03.934Z,56.2
2019-03-26T17:16:58.626Z,57.7
2019-03-26T17:21:58.637Z,56.9
2019-03-26T17:26:58.615Z,57.7
2019-03-26T17:31:58.615Z,57.8
2019-03-26T17:36:59.088Z,58.4
2019-03-26T17:41:58.694Z,59.4
2019-03-26T17:46:58.635Z,59.1
2019-03-26T17:51:58.649Z,59.5
2019-03-26T17:56:58.591Z,60.1
2019-03-26T18:01:58.685Z,59.7
2019-03-26T18:06:58.670Z,60.9
2019-03-26T18:11:58.643Z,59.9
2019-03-26T18:16:58.656Z,60.2
2019-03-26T18:21:58.666Z,60.1
2019-03-26T18:26:58.661Z,60
2019-03-26T18:31:58.680Z,60.6
2019-03-26T18:36:58.841Z,61.8
2019-03-26T18:41:58.852Z,61.1
2019-03-26T18:46:58.893Z,62.4
2019-03-26T18:51:58.719Z,62.2
2019-03-26T18:56:58.984Z,61.2
2019-03-26T19:01:58.691Z,62
2019-03-26T19:06:58.683Z,61.5
2019-03-26T19:11:58.856Z,61.3
2019-03-26T19:16:58.799Z,61.1
2019-03-26T19:21:58.950Z,62.1
2019-03-26T19:26:58.860Z,61.8
2019-03-26T19:31:58.911Z,61.7
2019-03-26T19:36:59.091Z,62.3
2019-03-26T19:41:58.886Z,61
2019-03-26T19:46:59.575Z,61.8
2019-03-26T19:52:02.129Z,62.5
2019-03-26T19:56:58.776Z,62.3
2019-03-26T20:01:58.762Z,62.2
2019-03-26T20:06:58.962Z,62.1
2019-03-26T20:11:59.857Z,62.1
2019-03-26T20:16:58.990Z,61.9
2019-03-26T20:21:58.983Z,61.3
2019-03-26T20:26:59.001Z,61.1
2019-03-26T20:31:58.757Z,60.7
2019-03-26T20:36:58.930Z,60.6
2019-03-26T20:41:58.761Z,59.6
2019-03-26T20:46:58.915Z,60
2019-03-26T20:51:58.969Z,59.1
2019-03-26T20:56:58.996Z,60.3
2019-03-26T21:01:58.786Z,60.2
2019-03-26T21:06:58.939Z,59.5
2019-03-26T21:11:58.976Z,59.3
2019-03-26T21:16:58.917Z,60
2019-03-26T21:21:59.395Z,59.5
2019-03-26T21:26:58.799Z,59.7
2019-03-26T21:31:58.986Z,60.1
2019-03-26T21:36:58.984Z,60.3
2019-03-26T21:41:59.044Z,60.6
2019-03-26T21:46:58.791Z,60.5
2019-03-26T21:51:58.866Z,60.8
2019-03-26T21:56:58.761Z,61
2019-03-26T22:01:59.158Z,60.5
2019-03-26T22:06:58.923Z,60.7
2019-03-26T22:11:58.907Z,60.9
2019-03-26T22:17:00.301Z,62
2019-03-26T22:21:58.778Z,61
2019-03-26T22:26:58.787Z,60.8
2019-03-26T22:31:58.786Z,61.1
2019-03-26T22:36:58.798Z,61.9
2019-03-26T22:41:58.787Z,61.6
2019-03-26T22:46:58.803Z,61.7
2019-03-26T22:51:58.955Z,61.4
2019-03-26T22:56:58.799Z,61.8
2019-03-26T23:01:58.815Z,62
2019-03-26T23:06:59.042Z,62.8
2019-03-26T23:11:58.945Z,62.2
2019-03-26T23:16:59.013Z,62.5
2019-03-26T23:21:59.041Z,62.9
2019-03-26T23:26:58.987Z,62.5
2019-03-26T23:31:58.954Z,62.4
2019-03-26T23:36:59.007Z,62.2
2019-03-26T23:41:58.946Z,61.5
2019-03-26T23:46:58.803Z,60.7
2019-03-26T23:51:59.071Z,60.7
2019-03-26T23:56:58.909Z,60.7
